Time;durP1;ratioP1;P1;durP2;ratioP2;P2;SDS_P1;SDS_P2;PMS_P1;PMS_P2;Temp;Humidity;BMP_temperature;BMP_pressure;BME280_temperature;BME280_humidity;BME280_pressure;Samples;Min_cycle;Max_cycle;Signal;HPM_P1;HPM_P2
2023/06/03 00:02:00;;;;;;;4.72;1.95;;;12.10;99.90;;;;;;5065393;28;20054;-73
2023/06/03 00:04:29;;;;;;;4.88;2.03;;;12.10;99.90;;;;;;5030134;28;20399;-74
2023/06/03 00:06:56;;;;;;;2.83;1.60;;;12.00;99.90;;;;;;5046979;28;20049;-73
2023/06/03 00:09:22;;;;;;;3.63;2.05;;;12.00;99.90;;;;;;5051673;28;20043;-73
2023/06/03 00:11:47;;;;;;;3.08;1.73;;;11.90;99.90;;;;;;5034716;28;20055;-73
2023/06/03 00:14:13;;;;;;;5.75;1.75;;;11.90;99.90;;;;;;5049719;28;20466;-74
2023/06/03 00:16:42;;;;;;;4.55;1.55;;;11.90;99.90;;;;;;5047797;28;20035;-74
2023/06/03 00:19:08;;;;;;;2.70;1.40;;;11.80;99.90;;;;;;5049386;28;20059;-74
2023/06/03 00:21:34;;;;;;;3.78;1.55;;;11.80;99.90;;;;;;5065054;28;20036;-73
2023/06/03 00:24:00;;;;;;;3.90;1.63;;;11.70;99.90;;;;;;5049765;28;20048;-70
2023/06/03 00:26:26;;;;;;;3.35;1.55;;;11.70;99.90;;;;;;5048911;28;20032;-70
2023/06/03 00:28:51;;;;;;;2.92;1.33;;;11.70;99.90;;;;;;5031097;28;20047;-71
2023/06/03 00:31:17;;;;;;;3.75;1.77;;;11.60;99.90;;;;;;5048360;28;20040;-71
2023/06/03 00:33:43;;;;;;;3.45;1.50;;;11.60;99.90;;;;;;5051428;28;20043;-71
2023/06/03 00:36:09;;;;;;;3.10;1.30;;;11.60;99.50;;;;;;5066042;28;20500;-71
2023/06/03 00:38:35;;;;;;;4.10;1.40;;;11.60;99.10;;;;;;5034636;28;20043;-70
2023/06/03 00:41:00;;;;;;;3.67;1.40;;;11.50;98.90;;;;;;5035771;28;20048;-70
2023/06/03 00:43:26;;;;;;;3.63;1.58;;;11.50;98.60;;;;;;5018480;28;20047;-71
2023/06/03 00:45:53;;;;;;;3.72;1.77;;;11.50;98.50;;;;;;5065733;28;20040;-71
2023/06/03 00:48:19;;;;;;;3.28;1.42;;;11.50;98.20;;;;;;5041440;28;20047;-71
2023/06/03 00:50:45;;;;;;;3.75;1.15;;;11.50;98.10;;;;;;5031752;28;20040;-71
2023/06/03 00:53:14;;;;;;;4.50;1.27;;;11.40;97.70;;;;;;5031873;28;20044;-71
2023/06/03 00:55:40;;;;;;;2.13;1.20;;;11.40;97.60;;;;;;5047415;28;20044;-71
2023/06/03 00:58:07;;;;;;;3.13;1.10;;;11.30;97.50;;;;;;5033218;28;20098;-71
2023/06/03 01:00:33;;;;;;;3.22;1.17;;;11.30;97.60;;;;;;5068042;28;20523;-71
2023/06/03 01:03:01;;;;;;;2.90;1.08;;;11.30;97.40;;;;;;5047139;28;20048;-71
2023/06/03 01:05:27;;;;;;;3.47;1.38;;;11.20;97.20;;;;;;5037802;28;20049;-71
2023/06/03 01:08:07;;;;;;;3.35;1.30;;;11.20;97.00;;;;;;5025865;28;20464;-71
2023/06/03 01:10:51;;;;;;;2.88;1.40;;;11.20;96.90;;;;;;5027865;28;20040;-70
2023/06/03 01:13:34;;;;;;;3.15;1.05;;;11.20;96.70;;;;;;5046106;28;20042;-71
2023/06/03 01:16:04;;;;;;;2.83;1.17;;;11.10;96.50;;;;;;5058124;28;20044;-71
2023/06/03 01:18:33;;;;;;;3.38;1.30;;;11.10;96.60;;;;;;5022883;28;20041;-71
2023/06/03 01:21:00;;;;;;;3.38;1.48;;;11.00;96.70;;;;;;5043456;28;20484;-71
2023/06/03 01:23:33;;;;;;;2.72;1.13;;;10.90;96.80;;;;;;5046231;28;20036;-71
2023/06/03 01:26:04;;;;;;;2.28;1.00;;;10.90;96.70;;;;;;5016113;28;20119;-71
2023/06/03 01:28:31;;;;;;;2.33;1.02;;;10.90;96.90;;;;;;5055647;28;20080;-71
2023/06/03 01:30:58;;;;;;;3.08;1.20;;;10.80;96.90;;;;;;5039569;28;20099;-71
2023/06/03 01:33:26;;;;;;;3.78;1.45;;;10.80;97.00;;;;;;5041772;28;20053;-71
2023/06/03 01:35:53;;;;;;;5.45;2.78;;;10.70;97.00;;;;;;5026461;28;20091;-71
2023/06/03 01:38:21;;;;;;;5.68;2.63;;;10.70;97.00;;;;;;5044809;28;20037;-71
2023/06/03 01:40:47;;;;;;;4.20;2.45;;;10.60;97.10;;;;;;5047049;28;20469;-71
2023/06/03 01:43:13;;;;;;;8.00;2.38;;;10.60;97.30;;;;;;5026444;28;20052;-71
2023/06/03 01:45:39;;;;;;;2.67;1.50;;;10.50;97.40;;;;;;5046385;28;20861;-71
2023/06/03 01:48:05;;;;;;;3.63;1.45;;;10.50;97.40;;;;;;5007592;28;20552;-71
2023/06/03 01:50:31;;;;;;;2.88;1.38;;;10.40;97.50;;;;;;5031492;28;20101;-71
2023/06/03 01:52:56;;;;;;;2.58;1.10;;;10.40;97.60;;;;;;5040780;28;20082;-71
2023/06/03 01:55:22;;;;;;;5.80;1.30;;;10.30;97.70;;;;;;5044760;28;20645;-70
2023/06/03 01:57:48;;;;;;;2.95;1.20;;;10.30;97.90;;;;;;5039508;28;20079;-71
2023/06/03 02:00:16;;;;;;;2.95;1.45;;;10.30;97.90;;;;;;5051336;28;20041;-71
2023/06/03 02:02:42;;;;;;;4.80;1.30;;;10.20;98.10;;;;;;5028553;28;20463;-71
2023/06/03 02:05:08;;;;;;;2.50;1.23;;;10.20;98.20;;;;;;5021406;28;20098;-70
2023/06/03 02:07:34;;;;;;;3.00;1.15;;;10.10;98.20;;;;;;5058563;28;20056;-71
2023/06/03 02:10:03;;;;;;;3.78;1.60;;;10.10;98.20;;;;;;5045694;28;20116;-70
2023/06/03 02:12:29;;;;;;;2.60;1.48;;;10.10;98.30;;;;;;5052506;28;20056;-71
2023/06/03 02:14:56;;;;;;;3.17;1.40;;;10.00;98.50;;;;;;5049474;28;20054;-71
2023/06/03 02:17:26;;;;;;;3.78;1.42;;;10.00;98.60;;;;;;5069489;28;20075;-71
2023/06/03 02:19:53;;;;;;;2.88;1.15;;;10.00;98.60;;;;;;5051652;28;20067;-71
2023/06/03 02:22:19;;;;;;;2.05;1.10;;;10.00;98.70;;;;;;5065497;28;20059;-71
2023/06/03 02:24:48;;;;;;;2.92;1.35;;;9.90;98.70;;;;;;5050900;28;20040;-71
2023/06/03 02:27:24;;;;;;;6.22;1.48;;;9.90;98.70;;;;;;5019589;28;20052;-71
2023/06/03 02:29:51;;;;;;;2.88;1.35;;;9.90;98.90;;;;;;5060235;28;20051;-71
2023/06/03 02:32:17;;;;;;;3.60;1.38;;;9.90;99.10;;;;;;5054049;28;20052;-71
2023/06/03 02:34:43;;;;;;;3.88;1.77;;;9.90;99.20;;;;;;5061166;28;20654;-71
2023/06/03 02:37:12;;;;;;;4.13;1.48;;;9.80;99.30;;;;;;5072036;28;20500;-71
2023/06/03 02:39:38;;;;;;;2.35;1.20;;;9.80;99.40;;;;;;5032571;28;20043;-71
2023/06/03 02:42:05;;;;;;;3.65;1.33;;;9.80;99.40;;;;;;5075696;28;20059;-71
2023/06/03 02:44:33;;;;;;;5.10;1.80;;;9.80;99.40;;;;;;5038495;28;20035;-71
2023/06/03 02:46:59;;;;;;;3.03;1.30;;;9.70;99.40;;;;;;5064409;28;20047;-71
2023/06/03 02:49:25;;;;;;;3.10;1.25;;;9.70;99.40;;;;;;5050518;28;20048;-71
2023/06/03 02:51:50;;;;;;;3.30;1.40;;;9.70;99.40;;;;;;5005144;28;20399;-71
2023/06/03 02:54:16;;;;;;;2.83;1.35;;;9.70;99.40;;;;;;5048962;28;20055;-71
2023/06/03 02:56:42;;;;;;;3.28;1.40;;;9.70;99.50;;;;;;5064085;28;20075;-71
2023/06/03 02:59:08;;;;;;;3.25;1.65;;;9.70;99.50;;;;;;5082694;28;20036;-71
2023/06/03 03:01:33;;;;;;;3.10;1.27;;;9.70;99.60;;;;;;5050100;28;20041;-71
2023/06/03 03:03:59;;;;;;;3.45;1.50;;;9.70;99.70;;;;;;5055164;28;20082;-71
2023/06/03 03:06:25;;;;;;;2.78;1.50;;;9.70;99.60;;;;;;5073778;28;20121;-71
2023/06/03 03:08:52;;;;;;;2.92;1.67;;;9.60;99.80;;;;;;5080804;28;20519;-71
2023/06/03 03:11:18;;;;;;;4.88;1.40;;;9.60;99.90;;;;;;5075248;28;20046;-72
2023/06/03 03:13:45;;;;;;;3.13;1.45;;;9.50;99.90;;;;;;5082619;28;20036;-72
2023/06/03 03:16:15;;;;;;;3.60;1.75;;;9.50;99.90;;;;;;5054687;28;20545;-73
2023/06/03 03:18:42;;;;;;;2.28;1.40;;;9.40;99.90;;;;;;5064462;28;20047;-72
2023/06/03 03:21:07;;;;;;;5.97;2.28;;;9.40;99.90;;;;;;5047647;28;20045;-72
2023/06/03 03:23:33;;;;;;;2.65;1.50;;;9.30;99.90;;;;;;5080484;28;20101;-73
2023/06/03 03:26:02;;;;;;;5.00;1.70;;;9.30;99.90;;;;;;5039195;28;20100;-72
2023/06/03 03:28:28;;;;;;;2.88;1.40;;;9.30;99.90;;;;;;5080935;28;20056;-72
2023/06/03 03:30:57;;;;;;;3.85;1.42;;;9.30;99.90;;;;;;5077588;28;20051;-72
2023/06/03 03:33:24;;;;;;;1.95;1.20;;;9.20;99.90;;;;;;5051336;28;20088;-73
2023/06/03 03:35:50;;;;;;;4.63;1.70;;;9.20;99.90;;;;;;5036238;28;21077;-72
2023/06/03 03:38:17;;;;;;;3.25;1.40;;;9.10;99.90;;;;;;5056791;28;20052;-72
2023/06/03 03:40:43;;;;;;;5.93;1.45;;;9.10;99.90;;;;;;5068099;28;20145;-72
2023/06/03 03:43:16;;;;;;;5.70;1.85;;;9.10;99.90;;;;;;5041496;28;20037;-73
2023/06/03 03:45:42;;;;;;;3.25;1.40;;;9.10;99.90;;;;;;5065118;28;20286;-72
2023/06/03 03:48:13;;;;;;;5.32;1.90;;;9.10;99.90;;;;;;5056556;28;20051;-73
2023/06/03 03:50:45;;;;;;;4.85;1.60;;;9.10;99.90;;;;;;5055046;28;20680;-72
2023/06/03 03:53:25;;;;;;;3.10;1.70;;;9.20;99.90;;;;;;5059936;28;20518;-73
2023/06/03 03:55:53;;;;;;;3.08;1.58;;;9.20;99.90;;;;;;5070551;28;20071;-73
2023/06/03 03:58:25;;;;;;;3.72;1.42;;;9.20;99.90;;;;;;5066587;28;20559;-73
2023/06/03 04:00:51;;;;;;;3.40;1.95;;;9.20;99.90;;;;;;5059665;28;20040;-73
2023/06/03 04:03:23;;;;;;;5.50;1.85;;;9.20;99.90;;;;;;5063351;28;20388;-71
2023/06/03 04:05:49;;;;;;;3.15;1.60;;;9.20;99.90;;;;;;5077087;28;20159;-71
2023/06/03 04:08:39;;;;;;;4.40;1.58;;;9.20;99.90;;;;;;5060889;28;20051;-71
2023/06/03 04:11:07;;;;;;;3.67;1.77;;;9.20;99.90;;;;;;5071091;28;20047;-71
2023/06/03 04:13:38;;;;;;;7.38;1.90;;;9.20;99.90;;;;;;5079207;28;20049;-71
2023/06/03 04:16:11;;;;;;;4.75;1.80;;;9.20;99.90;;;;;;5040636;28;20070;-71
2023/06/03 04:18:40;;;;;;;3.65;1.70;;;9.30;99.90;;;;;;5065056;28;20048;-71
2023/06/03 04:21:13;;;;;;;5.30;1.77;;;9.30;99.90;;;;;;5052111;28;20118;-71
2023/06/03 04:23:38;;;;;;;4.38;1.85;;;9.30;99.90;;;;;;5062926;28;20078;-71
2023/06/03 04:26:04;;;;;;;4.40;1.75;;;9.30;99.90;;;;;;5093282;28;20427;-71
2023/06/03 04:28:30;;;;;;;3.55;1.83;;;9.30;99.90;;;;;;5070740;28;20048;-71
2023/06/03 04:30:56;;;;;;;4.32;1.75;;;9.40;99.90;;;;;;5059309;28;20041;-72
2023/06/03 04:33:21;;;;;;;3.03;1.67;;;9.40;99.90;;;;;;5040552;28;20463;-72
2023/06/03 04:35:47;;;;;;;3.63;1.92;;;9.40;99.90;;;;;;5054236;28;20055;-72
2023/06/03 04:38:13;;;;;;;3.63;1.75;;;9.50;99.90;;;;;;5042483;28;20186;-72
2023/06/03 04:40:39;;;;;;;4.10;1.80;;;9.50;99.90;;;;;;5042876;28;20052;-72
2023/06/03 04:43:05;;;;;;;4.78;1.70;;;9.60;99.90;;;;;;5082509;28;20126;-72
2023/06/03 04:45:32;;;;;;;3.38;1.73;;;9.60;99.90;;;;;;5045575;28;20059;-72
2023/06/03 04:48:01;;;;;;;2.90;1.92;;;9.70;99.90;;;;;;5069622;28;20048;-72
2023/06/03 04:50:34;;;;;;;4.55;2.10;;;9.70;99.90;;;;;;5078364;28;20047;-72
2023/06/03 04:53:00;;;;;;;4.68;1.90;;;9.80;99.90;;;;;;5085372;28;20130;-72
2023/06/03 04:55:26;;;;;;;3.92;2.05;;;9.80;99.90;;;;;;5076075;28;20127;-72
2023/06/03 04:57:55;;;;;;;3.28;1.83;;;9.90;99.90;;;;;;5051353;28;20036;-71
2023/06/03 05:00:22;;;;;;;4.30;1.90;;;9.90;99.90;;;;;;5054844;28;20399;-75
2023/06/03 05:02:55;;;;;;;5.05;1.73;;;10.00;99.90;;;;;;5034059;28;20047;-75
2023/06/03 05:05:25;;;;;;;4.57;2.05;;;10.10;99.90;;;;;;5061264;28;20052;-74
2023/06/03 05:07:51;;;;;;;3.65;1.80;;;10.10;99.90;;;;;;5049598;28;20044;-75
2023/06/03 05:10:18;;;;;;;4.65;2.00;;;10.20;99.90;;;;;;5048980;28;20174;-75
2023/06/03 05:12:45;;;;;;;5.30;2.53;;;10.30;99.90;;;;;;5059327;28;20032;-75
2023/06/03 05:15:14;;;;;;;4.55;1.92;;;10.30;99.90;;;;;;5065832;28;20055;-74
2023/06/03 05:17:40;;;;;;;3.80;2.05;;;10.40;99.90;;;;;;5038583;28;20565;-73
2023/06/03 05:20:09;;;;;;;4.38;2.40;;;10.50;99.90;;;;;;5052744;28;20051;-72
2023/06/03 05:22:35;;;;;;;4.78;1.88;;;10.50;99.90;;;;;;5062552;28;20496;-72
2023/06/03 05:25:05;;;;;;;4.20;1.92;;;10.60;99.90;;;;;;5055072;28;20162;-73
2023/06/03 05:27:30;;;;;;;5.13;1.92;;;10.70;99.90;;;;;;5037058;28;20474;-72
2023/06/03 05:29:56;;;;;;;5.32;1.88;;;10.70;99.90;;;;;;5065747;28;20147;-72
2023/06/03 05:32:22;;;;;;;5.60;1.80;;;10.90;99.90;;;;;;5030474;28;20055;-72
2023/06/03 05:34:48;;;;;;;4.75;1.85;;;10.90;99.90;;;;;;5043484;28;20595;-72
2023/06/03 05:37:14;;;;;;;4.38;1.75;;;11.00;99.90;;;;;;5031845;28;20047;-72
2023/06/03 05:39:40;;;;;;;2.83;1.70;;;11.10;99.90;;;;;;5062404;28;20067;-72
2023/06/03 05:42:09;;;;;;;5.43;1.98;;;11.20;99.90;;;;;;5062735;28;20048;-72
2023/06/03 05:44:34;;;;;;;2.63;1.40;;;11.30;99.90;;;;;;5081698;28;20539;-73
2023/06/03 05:47:00;;;;;;;6.18;1.60;;;11.40;99.90;;;;;;5048627;28;20114;-72
2023/06/03 05:49:27;;;;;;;2.72;1.30;;;11.60;99.90;;;;;;5059260;28;20044;-72
2023/06/03 05:51:52;;;;;;;2.28;1.30;;;11.60;99.90;;;;;;5070677;28;20052;-72
2023/06/03 05:54:18;;;;;;;3.63;1.50;;;11.70;99.90;;;;;;5048453;28;20040;-73
2023/06/03 05:56:44;;;;;;;4.07;1.50;;;11.80;99.90;;;;;;5057981;28;20116;-71
2023/06/03 05:59:13;;;;;;;2.83;1.38;;;11.90;99.90;;;;;;5060791;28;20054;-72
2023/06/03 06:01:38;;;;;;;3.92;1.38;;;11.90;99.90;;;;;;5049693;28;20090;-72
2023/06/03 06:04:04;;;;;;;3.63;1.50;;;12.00;99.90;;;;;;5046692;28;20565;-72
2023/06/03 06:06:30;;;;;;;2.60;1.30;;;12.00;99.90;;;;;;5034183;28;20056;-72
2023/06/03 06:08:56;;;;;;;3.13;1.20;;;12.10;99.90;;;;;;5060979;28;20071;-72
2023/06/03 06:11:22;;;;;;;4.38;1.33;;;12.30;99.90;;;;;;5046500;28;20044;-71
2023/06/03 06:13:47;;;;;;;3.70;1.50;;;12.40;99.90;;;;;;5029357;28;20037;-71
2023/06/03 06:16:14;;;;;;;3.83;1.33;;;12.60;99.90;;;;;;5050795;28;20521;-71
2023/06/03 06:18:40;;;;;;;2.25;1.20;;;12.70;99.60;;;;;;5065397;28;20048;-71
2023/06/03 06:21:05;;;;;;;4.70;1.20;;;12.80;99.20;;;;;;5033176;28;20060;-71
2023/06/03 06:23:34;;;;;;;2.03;1.05;;;12.90;98.50;;;;;;5080127;28;20593;-72
2023/06/03 06:26:00;;;;;;;3.80;1.25;;;13.00;97.90;;;;;;5059657;28;20381;-71
2023/06/03 06:28:27;;;;;;;3.97;1.40;;;13.10;97.60;;;;;;5064889;28;20454;-71
2023/06/03 06:30:54;;;;;;;8.25;1.60;;;13.20;97.60;;;;;;5065382;28;20040;-71
2023/06/03 06:33:20;;;;;;;3.15;1.20;;;13.30;96.40;;;;;;5043960;28;20518;-71
2023/06/03 06:35:46;;;;;;;1.88;0.93;;;13.30;95.60;;;;;;5045006;28;20044;-71
2023/06/03 06:38:13;;;;;;;3.22;0.93;;;13.40;95.10;;;;;;5078754;28;20052;-71
2023/06/03 06:40:40;;;;;;;3.50;0.98;;;13.40;95.30;;;;;;5079995;28;20498;-69
2023/06/03 06:43:12;;;;;;;4.32;1.52;;;13.60;95.10;;;;;;5062770;28;20040;-71
2023/06/03 06:45:40;;;;;;;3.17;1.25;;;13.70;94.00;;;;;;5064258;28;20032;-71
2023/06/03 06:48:08;;;;;;;1.98;1.00;;;13.80;93.80;;;;;;5060452;28;20051;-71
2023/06/03 06:50:53;;;;;;;2.67;1.20;;;13.80;92.60;;;;;;5061890;28;20040;-71
2023/06/03 06:53:24;;;;;;;3.97;1.10;;;14.00;92.70;;;;;;5063130;28;20052;-71
2023/06/03 06:55:54;;;;;;;2.50;0.95;;;14.00;93.30;;;;;;5076547;28;20104;-72
2023/06/03 06:58:21;;;;;;;4.10;1.20;;;14.10;92.90;;;;;;5076846;28;20508;-71
2023/06/03 07:00:48;;;;;;;2.08;0.90;;;14.30;92.00;;;;;;5062639;28;20039;-71
2023/06/03 07:03:16;;;;;;;5.25;1.08;;;14.40;91.20;;;;;;5062348;28;20084;-71
2023/06/03 07:05:42;;;;;;;3.40;1.35;;;14.60;90.90;;;;;;5079418;28;20441;-71
2023/06/03 07:08:08;;;;;;;3.03;0.90;;;14.70;91.00;;;;;;5078990;28;20518;-71
2023/06/03 07:10:35;;;;;;;3.20;1.15;;;14.80;90.50;;;;;;5080517;28;20366;-71
2023/06/03 07:13:02;;;;;;;3.35;1.30;;;14.90;89.80;;;;;;5062341;28;20052;-71
2023/06/03 07:15:31;;;;;;;5.72;1.25;;;15.10;88.40;;;;;;5081141;28;20140;-71
2023/06/03 07:17:58;;;;;;;5.38;1.20;;;15.20;86.90;;;;;;5074293;28;20060;-71
2023/06/03 07:20:34;;;;;;;2.28;1.00;;;15.40;87.10;;;;;;5062227;28;20036;-71
2023/06/03 07:23:01;;;;;;;2.10;1.08;;;15.50;86.80;;;;;;5063645;28;20051;-74
2023/06/03 07:25:44;;;;;;;2.08;1.10;;;15.60;87.60;;;;;;5080313;28;20045;-74
2023/06/03 07:28:11;;;;;;;1.98;1.02;;;15.70;85.90;;;;;;5046873;28;20048;-74
2023/06/03 07:30:39;;;;;;;2.95;1.20;;;15.80;85.30;;;;;;5062549;28;20044;-74
2023/06/03 07:33:10;;;;;;;3.08;1.10;;;15.80;84.50;;;;;;5074885;28;20048;-73
2023/06/03 07:35:36;;;;;;;4.70;1.10;;;15.90;83.00;;;;;;5074625;28;20044;-72
2023/06/03 07:38:04;;;;;;;3.15;1.33;;;15.90;82.80;;;;;;5081663;28;20042;-71
2023/06/03 07:40:41;;;;;;;4.05;1.27;;;16.00;81.50;;;;;;5093362;28;20405;-71
2023/06/03 07:43:08;;;;;;;3.95;1.15;;;16.10;81.60;;;;;;5076404;28;20048;-71
2023/06/03 07:45:34;;;;;;;2.92;1.60;;;16.30;81.30;;;;;;5062458;28;20044;-70
2023/06/03 07:48:04;;;;;;;3.13;1.10;;;16.40;79.70;;;;;;5055960;28;20047;-71
2023/06/03 07:50:32;;;;;;;3.58;1.13;;;16.50;78.50;;;;;;5079495;28;20040;-71
2023/06/03 07:53:01;;;;;;;3.70;1.05;;;16.70;79.10;;;;;;5016094;28;20122;-71
2023/06/03 07:55:43;;;;;;;3.47;1.13;;;16.90;78.40;;;;;;5076317;28;20044;-71
2023/06/03 07:58:14;;;;;;;3.53;1.05;;;17.10;78.20;;;;;;5079394;28;20052;-71
2023/06/03 08:00:43;;;;;;;4.90;0.98;;;17.30;77.50;;;;;;5062549;28;20109;-71
2023/06/03 08:03:11;;;;;;;3.38;1.13;;;17.50;75.40;;;;;;5082757;28;20044;-71
2023/06/03 08:05:37;;;;;;;3.45;0.98;;;17.60;72.90;;;;;;5063225;28;20132;-70
2023/06/03 08:08:06;;;;;;;3.00;1.08;;;17.60;70.60;;;;;;5060954;28;20496;-71
2023/06/03 08:10:35;;;;;;;3.57;0.80;;;17.40;71.30;;;;;;5059878;28;20047;-71
2023/06/03 08:13:01;;;;;;;2.38;0.90;;;17.40;70.30;;;;;;5082086;28;20036;-71
2023/06/03 08:15:35;;;;;;;2.20;0.88;;;17.40;71.20;;;;;;5076723;28;20040;-72
2023/06/03 08:18:04;;;;;;;2.13;0.85;;;17.40;69.20;;;;;;5079580;28;20193;-71
2023/06/03 08:20:30;;;;;;;4.07;1.05;;;17.40;68.00;;;;;;5080304;28;20108;-73
2023/06/03 08:22:56;;;;;;;1.85;0.98;;;17.40;68.80;;;;;;5085060;28;20036;-73
2023/06/03 08:25:23;;;;;;;2.50;0.82;;;17.40;69.10;;;;;;5077347;28;20045;-73
2023/06/03 08:27:49;;;;;;;1.92;0.70;;;17.50;68.00;;;;;;5044467;28;20109;-73
2023/06/03 08:30:16;;;;;;;1.98;0.73;;;17.70;66.30;;;;;;5080553;28;20707;-73
2023/06/03 08:32:42;;;;;;;2.80;0.90;;;17.90;64.80;;;;;;5064711;28;20048;-74
2023/06/03 08:35:11;;;;;;;2.63;0.80;;;18.10;65.40;;;;;;5058272;28;20041;-74
2023/06/03 08:37:37;;;;;;;3.13;1.00;;;18.20;64.60;;;;;;5084353;28;20036;-73
2023/06/03 08:40:09;;;;;;;1.30;0.75;;;18.40;63.20;;;;;;5048294;28;20047;-73
2023/06/03 08:42:43;;;;;;;2.75;1.00;;;18.50;62.00;;;;;;5068160;28;20079;-75
2023/06/03 08:45:11;;;;;;;1.83;0.73;;;18.50;59.90;;;;;;5063608;28;20423;-72
2023/06/03 08:47:39;;;;;;;2.22;0.93;;;18.40;59.90;;;;;;5064630;28;20051;-73
2023/06/03 08:50:07;;;;;;;2.15;0.70;;;18.40;59.30;;;;;;5064354;28;20040;-73
2023/06/03 08:52:37;;;;;;;5.80;0.98;;;18.30;58.40;;;;;;5084909;28;20052;-73
2023/06/03 08:55:06;;;;;;;2.15;0.75;;;18.10;57.60;;;;;;5080532;28;20047;-73
2023/06/03 08:57:40;;;;;;;2.67;0.80;;;18.00;58.10;;;;;;5044750;28;20485;-71
2023/06/03 09:00:07;;;;;;;4.90;1.00;;;17.90;58.80;;;;;;5065440;28;20503;-71
2023/06/03 09:02:34;;;;;;;1.45;0.70;;;17.80;59.20;;;;;;5079546;28;20036;-70
2023/06/03 09:05:01;;;;;;;2.47;1.10;;;17.60;57.60;;;;;;5063468;28;20238;-71
2023/06/03 09:07:29;;;;;;;1.58;0.85;;;17.60;58.80;;;;;;5064626;28;20041;-71
2023/06/03 09:09:56;;;;;;;2.28;0.70;;;17.40;58.10;;;;;;5081902;28;20040;-74
2023/06/03 09:12:25;;;;;;;2.88;1.17;;;17.40;58.00;;;;;;5074730;28;20040;-73
2023/06/03 09:14:54;;;;;;;1.87;0.93;;;17.30;58.60;;;;;;5051588;28;20048;-73
2023/06/03 09:17:20;;;;;;;3.80;0.82;;;17.40;59.10;;;;;;5062867;28;20079;-71
2023/06/03 09:19:46;;;;;;;2.13;0.80;;;17.40;58.20;;;;;;5047512;28;20094;-71
2023/06/03 09:22:13;;;;;;;1.70;0.90;;;17.50;58.90;;;;;;5046277;28;20412;-70
2023/06/03 09:24:39;;;;;;;2.60;0.90;;;17.60;58.90;;;;;;5068619;28;20044;-70
2023/06/03 09:27:05;;;;;;;2.80;0.90;;;17.70;59.00;;;;;;5045926;28;20054;-71
2023/06/03 09:29:31;;;;;;;2.35;0.93;;;17.80;59.00;;;;;;5065682;28;20048;-70
2023/06/03 09:31:58;;;;;;;4.95;1.20;;;18.00;59.80;;;;;;5079981;28;20044;-71
2023/06/03 09:34:26;;;;;;;2.83;1.00;;;18.20;58.70;;;;;;5078173;28;20574;-71
2023/06/03 09:36:52;;;;;;;2.67;1.00;;;18.40;57.90;;;;;;5081374;28;20075;-72
2023/06/03 09:39:32;;;;;;;3.40;0.95;;;18.70;59.20;;;;;;5080719;28;20079;-72
2023/06/03 09:41:58;;;;;;;3.30;1.00;;;19.00;56.50;;;;;;5065422;28;20036;-71
2023/06/03 09:44:24;;;;;;;3.20;0.90;;;19.10;56.00;;;;;;5065213;28;20044;-72
2023/06/03 09:46:53;;;;;;;2.53;0.90;;;19.20;57.00;;;;;;5065527;28;20048;-72
2023/06/03 09:49:18;;;;;;;4.05;0.73;;;19.30;56.10;;;;;;5083890;28;20048;-72
2023/06/03 09:51:49;;;;;;;2.00;0.90;;;19.30;55.30;;;;;;5068189;28;20875;-72
2023/06/03 09:54:17;;;;;;;3.08;0.98;;;19.30;55.30;;;;;;5046856;28;20044;-72
2023/06/03 09:56:47;;;;;;;1.48;0.80;;;19.30;55.00;;;;;;5091496;28;20068;-71
2023/06/03 09:59:17;;;;;;;;;;;19.40;54.80;;;;;;5066492;28;20549;-71
2023/06/03 10:01:47;;;;;;;1.60;0.90;;;19.40;55.90;;;;;;5065672;28;19928;-72
2023/06/03 10:04:23;;;;;;;2.72;1.10;;;19.60;54.30;;;;;;5081853;28;20051;-71
2023/06/03 10:07:09;;;;;;;3.08;1.10;;;19.50;53.00;;;;;;5063562;28;20135;-71
2023/06/03 10:09:36;;;;;;;1.45;0.73;;;19.50;54.20;;;;;;5080765;28;20044;-71
2023/06/03 10:12:02;;;;;;;2.67;1.10;;;19.60;54.30;;;;;;5064885;28;20433;-71
2023/06/03 10:14:28;;;;;;;3.80;0.85;;;19.70;53.70;;;;;;5046313;28;20078;-71
2023/06/03 10:17:09;;;;;;;2.85;0.80;;;19.80;51.80;;;;;;5062133;28;20066;-71
2023/06/03 10:19:35;;;;;;;5.45;1.00;;;19.80;52.30;;;;;;5081871;28;20503;-71
2023/06/03 10:22:02;;;;;;;2.40;0.73;;;19.80;52.70;;;;;;5093804;28;20036;-70
2023/06/03 10:24:30;;;;;;;6.40;1.20;;;19.80;53.70;;;;;;5079879;28;20655;-72
2023/06/03 10:26:56;;;;;;;4.45;0.90;;;19.90;52.30;;;;;;5063506;28;20067;-71
2023/06/03 10:29:24;;;;;;;5.43;1.17;;;19.90;53.30;;;;;;5059455;28;20088;-72
2023/06/03 10:31:53;;;;;;;2.10;0.88;;;20.00;52.80;;;;;;5081236;28;21009;-71
2023/06/03 10:34:19;;;;;;;2.97;0.80;;;20.10;52.20;;;;;;5049657;28;20445;-71
2023/06/03 10:36:51;;;;;;;3.25;0.90;;;20.10;52.70;;;;;;5065109;28;20071;-72
2023/06/03 10:39:18;;;;;;;1.75;1.00;;;20.20;50.60;;;;;;5060429;28;20530;-71
2023/06/03 10:41:45;;;;;;;3.20;0.80;;;20.30;50.50;;;;;;5078074;28;20373;-72
2023/06/03 10:44:10;;;;;;;2.58;0.88;;;20.20;51.00;;;;;;5061404;28;20044;-71
2023/06/03 10:46:44;;;;;;;4.00;1.10;;;20.20;51.60;;;;;;5081801;28;20373;-71
2023/06/03 10:49:10;;;;;;;2.75;0.80;;;20.40;52.90;;;;;;5058626;28;20075;-71
2023/06/03 10:51:54;;;;;;;2.28;0.90;;;20.50;51.80;;;;;;5066513;28;20059;-71
2023/06/03 10:54:23;;;;;;;4.13;1.00;;;20.70;51.20;;;;;;5062981;28;20392;-72
2023/06/03 10:57:05;;;;;;;1.85;0.98;;;20.70;50.90;;;;;;5075278;28;20093;-68
2023/06/03 10:59:42;;;;;;;1.73;0.90;;;20.80;49.40;;;;;;5065988;28;20043;-71
2023/06/03 11:02:08;;;;;;;5.18;1.02;;;20.60;49.60;;;;;;5076153;28;20048;-71
2023/06/03 11:04:36;;;;;;;2.53;0.85;;;20.70;49.40;;;;;;5065043;28;20032;-72
2023/06/03 11:07:06;;;;;;;2.20;0.82;;;20.70;48.60;;;;;;5064595;28;20071;-71
2023/06/03 11:09:40;;;;;;;4.43;0.82;;;20.70;50.10;;;;;;5076153;28;20471;-72
2023/06/03 11:12:13;;;;;;;3.13;1.10;;;20.80;49.70;;;;;;5075999;28;20627;-71
2023/06/03 11:14:50;;;;;;;3.35;1.13;;;20.90;51.80;;;;;;5075699;28;20063;-71
2023/06/03 11:17:18;;;;;;;2.63;0.90;;;21.00;49.60;;;;;;5066490;28;20040;-71
2023/06/03 11:19:44;;;;;;;2.60;1.00;;;21.10;49.40;;;;;;5075940;28;20558;-72
2023/06/03 11:22:11;;;;;;;3.30;0.98;;;21.10;48.60;;;;;;5064327;28;20072;-71
2023/06/03 11:24:41;;;;;;;2.67;1.13;;;21.00;48.40;;;;;;5081164;28;20119;-72
2023/06/03 11:27:13;;;;;;;2.80;0.90;;;20.90;48.90;;;;;;5079254;28;20055;-72
2023/06/03 11:29:51;;;;;;;4.55;1.13;;;20.90;48.60;;;;;;5081549;28;20301;-71
2023/06/03 11:32:21;;;;;;;1.98;0.77;;;21.00;49.00;;;;;;5081077;28;20126;-71
2023/06/03 11:34:49;;;;;;;4.53;1.02;;;21.00;50.10;;;;;;5074932;28;20041;-70
2023/06/03 11:37:19;;;;;;;3.53;0.90;;;21.10;50.30;;;;;;5058122;28;20053;-70
2023/06/03 11:40:08;;;;;;;2.35;0.93;;;21.20;49.30;;;;;;5075021;28;20051;-71
2023/06/03 11:42:46;;;;;;;3.42;1.20;;;21.20;48.50;;;;;;5077549;28;20043;-73
2023/06/03 11:45:21;;;;;;;3.33;0.98;;;21.10;48.20;;;;;;5075897;28;20060;-74
2023/06/03 11:47:47;;;;;;;1.98;0.73;;;21.00;50.20;;;;;;5062589;28;20040;-73
2023/06/03 11:50:13;;;;;;;3.35;1.08;;;21.10;50.50;;;;;;5077041;28;20165;-74
2023/06/03 11:52:39;;;;;;;3.85;1.25;;;21.20;50.30;;;;;;5048900;28;20112;-74
2023/06/03 11:55:05;;;;;;;3.92;1.00;;;21.30;50.90;;;;;;5059250;28;20037;-73
2023/06/03 11:57:31;;;;;;;2.03;0.80;;;21.50;49.40;;;;;;5062605;28;20439;-74
2023/06/03 11:59:57;;;;;;;3.15;0.90;;;21.50;48.40;;;;;;5045288;28;20505;-73
2023/06/03 12:02:23;;;;;;;4.28;1.00;;;21.50;47.10;;;;;;5075780;28;20495;-71
2023/06/03 12:04:49;;;;;;;2.28;0.80;;;21.50;47.30;;;;;;5048758;28;20044;-70
2023/06/03 12:07:15;;;;;;;2.30;0.98;;;21.40;48.40;;;;;;5046716;28;20461;-71
2023/06/03 12:09:44;;;;;;;5.18;1.00;;;21.40;48.80;;;;;;5047382;28;20621;-71
2023/06/03 12:12:14;;;;;;;2.90;1.00;;;21.40;47.90;;;;;;5081857;28;20484;-71
2023/06/03 12:14:41;;;;;;;4.20;0.88;;;21.40;49.10;;;;;;5063823;28;20084;-71
2023/06/03 12:17:16;;;;;;;1.80;0.90;;;21.50;50.90;;;;;;5062804;28;20123;-71
2023/06/03 12:19:47;;;;;;;3.13;0.90;;;21.80;49.70;;;;;;5041636;28;20041;-71
2023/06/03 12:22:20;;;;;;;3.15;1.20;;;21.90;47.10;;;;;;5082018;28;20704;-71
2023/06/03 12:24:45;;;;;;;4.03;0.90;;;21.90;48.10;;;;;;5078654;28;20082;-71
2023/06/03 12:27:14;;;;;;;1.40;0.85;;;21.80;48.70;;;;;;5065164;28;20051;-71
2023/06/03 12:29:48;;;;;;;5.45;1.10;;;21.90;49.00;;;;;;5078764;28;20051;-71
2023/06/03 12:32:15;;;;;;;3.53;0.90;;;21.90;49.10;;;;;;5080207;28;20040;-70
2023/06/03 12:34:42;;;;;;;4.47;1.02;;;22.00;48.60;;;;;;5073342;28;20040;-70
2023/06/03 12:37:08;;;;;;;3.05;0.85;;;22.10;49.40;;;;;;5060116;28;20048;-71
2023/06/03 12:39:48;;;;;;;4.22;0.93;;;22.10;49.40;;;;;;5044407;28;20119;-71
2023/06/03 12:42:16;;;;;;;4.25;0.93;;;22.20;48.90;;;;;;5059367;28;20117;-72
2023/06/03 12:44:52;;;;;;;5.22;1.05;;;22.10;47.20;;;;;;5070966;28;20132;-71
2023/06/03 12:47:20;;;;;;;3.47;0.98;;;22.00;47.90;;;;;;5083367;28;20092;-72
2023/06/03 12:50:04;;;;;;;1.58;0.88;;;22.00;48.40;;;;;;5059308;28;20087;-71
2023/06/03 12:52:34;;;;;;;3.55;0.82;;;22.10;49.40;;;;;;5078587;28;20044;-71
2023/06/03 12:55:04;;;;;;;4.13;1.35;;;22.20;47.80;;;;;;5048404;28;20048;-71